Time;durP1;ratioP1;P1;durP2;ratioP2;P2;SDS_P1;SDS_P2;PMS_P1;PMS_P2;Temp;Humidity;BMP_temperature;BMP_pressure;BME280_temperature;BME280_humidity;BME280_pressure;Samples;Min_cycle;Max_cycle;Signal;HPM_P1;HPM_P2
2021/08/22 00:00:01;;;;;;;17.57;16.37;;;17.40;99.90;;;;;;5054644;28;20458;-72
2021/08/22 00:02:28;;;;;;;18.57;17.27;;;17.40;99.90;;;;;;5056728;28;20760;-69
2021/08/22 00:04:57;;;;;;;18.43;17.13;;;17.30;99.90;;;;;;5056876;28;20447;-72
2021/08/22 00:07:24;;;;;;;17.13;15.97;;;17.30;99.90;;;;;;5059055;28;20447;-68
2021/08/22 00:09:51;;;;;;;18.13;17.00;;;17.30;99.90;;;;;;5051543;28;20808;-68
2021/08/22 00:12:19;;;;;;;17.17;16.13;;;17.20;99.90;;;;;;5057232;28;20482;-68
2021/08/22 00:14:46;;;;;;;17.30;16.10;;;17.20;99.90;;;;;;5053733;28;20455;-70
2021/08/22 00:17:13;;;;;;;21.63;16.80;;;17.20;99.90;;;;;;5063203;28;20494;-67
2021/08/22 00:19:40;;;;;;;17.73;16.40;;;17.00;99.90;;;;;;5053529;28;20471;-68
2021/08/22 00:22:08;;;;;;;16.00;14.90;;;17.10;99.90;;;;;;5062256;28;20463;-68
2021/08/22 00:24:35;;;;;;;17.03;15.73;;;17.00;99.90;;;;;;5056980;28;20458;-68
2021/08/22 00:27:03;;;;;;;16.87;15.70;;;17.00;99.90;;;;;;5056324;28;20463;-69
2021/08/22 00:29:32;;;;;;;16.77;15.67;;;17.00;99.90;;;;;;5053574;28;20463;-68
2021/08/22 00:32:01;;;;;;;16.07;14.97;;;16.90;99.90;;;;;;5053079;28;20488;-68
2021/08/22 00:34:29;;;;;;;16.47;15.27;;;16.80;99.90;;;;;;5065386;28;20455;-68
2021/08/22 00:36:55;;;;;;;15.97;14.97;;;16.80;99.90;;;;;;5057875;28;20490;-70
2021/08/22 00:39:26;;;;;;;16.70;15.50;;;16.70;99.90;;;;;;5054283;28;20798;-69
2021/08/22 00:41:54;;;;;;;15.20;14.20;;;16.70;99.90;;;;;;5050246;28;20491;-67
2021/08/22 00:44:22;;;;;;;15.80;14.70;;;16.70;99.90;;;;;;5062330;28;20486;-68
2021/08/22 00:46:50;;;;;;;16.17;15.07;;;16.60;99.90;;;;;;5065027;28;20459;-71
2021/08/22 00:49:18;;;;;;;15.87;14.87;;;16.50;99.90;;;;;;5049572;28;20466;-72
2021/08/22 00:51:45;;;;;;;17.37;15.60;;;16.50;99.90;;;;;;5059788;28;20996;-68
2021/08/22 00:54:12;;;;;;;16.40;15.20;;;16.40;99.90;;;;;;5057677;28;20463;-71
2021/08/22 00:56:42;;;;;;;16.63;15.67;;;16.40;99.90;;;;;;5058686;28;20475;-70
2021/08/22 00:59:11;;;;;;;15.03;14.00;;;16.30;99.90;;;;;;5054496;28;20456;-70
2021/08/22 01:01:39;;;;;;;15.70;14.80;;;16.40;99.90;;;;;;5058034;28;20837;-68
2021/08/22 01:04:12;;;;;;;15.33;14.23;;;16.40;99.90;;;;;;5054641;28;20463;-68
2021/08/22 01:06:47;;;;;;;15.57;14.50;;;16.40;99.90;;;;;;5055095;28;20456;-68
2021/08/22 01:09:20;;;;;;;15.67;14.57;;;16.40;99.90;;;;;;5055156;28;20489;-68
2021/08/22 01:11:49;;;;;;;16.27;15.13;;;16.40;99.90;;;;;;5060314;28;20479;-68
2021/08/22 01:14:22;;;;;;;15.60;14.70;;;16.40;99.90;;;;;;5055027;28;20451;-70
2021/08/22 01:16:53;;;;;;;16.27;15.27;;;16.40;99.90;;;;;;5062784;28;20487;-69
2021/08/22 01:19:29;;;;;;;16.10;15.10;;;16.40;99.90;;;;;;5056698;28;20950;-68
2021/08/22 01:21:59;;;;;;;16.50;15.23;;;16.50;99.90;;;;;;5056603;28;20485;-68
2021/08/22 01:24:27;;;;;;;15.17;14.00;;;16.60;99.90;;;;;;5054932;28;20462;-69
2021/08/22 01:26:58;;;;;;;15.87;14.80;;;16.70;99.90;;;;;;5052411;28;20456;-69
2021/08/22 01:29:30;;;;;;;16.10;14.90;;;16.80;99.90;;;;;;5055230;28;20825;-69
2021/08/22 01:32:01;;;;;;;16.90;15.60;;;17.00;99.90;;;;;;5053490;28;20536;-68
2021/08/22 01:34:30;;;;;;;17.80;16.17;;;17.10;99.90;;;;;;5057153;28;20457;-70
2021/08/22 01:36:59;;;;;;;18.97;17.17;;;17.20;99.90;;;;;;5056886;28;20485;-68
2021/08/22 01:39:29;;;;;;;19.23;17.40;;;17.20;99.90;;;;;;5056115;28;20495;-70
2021/08/22 01:41:55;;;;;;;19.47;17.80;;;17.30;99.90;;;;;;5054926;28;20945;-70
2021/08/22 01:44:23;;;;;;;20.07;18.27;;;17.40;99.90;;;;;;5053273;28;20443;-70
2021/08/22 01:46:51;;;;;;;21.63;19.73;;;17.40;99.90;;;;;;5060859;28;20678;-68
2021/08/22 01:49:20;;;;;;;21.83;19.93;;;17.50;99.90;;;;;;5055735;28;20458;-68
2021/08/22 01:51:50;;;;;;;25.10;22.80;;;17.60;99.90;;;;;;5048303;28;20483;-70
2021/08/22 01:54:18;;;;;;;24.63;22.23;;;17.60;99.90;;;;;;5052013;28;20447;-67
2021/08/22 01:56:45;;;;;;;27.10;24.17;;;17.60;99.90;;;;;;5055190;28;20479;-68
2021/08/22 01:59:14;;;;;;;29.40;26.50;;;17.60;99.90;;;;;;5053342;28;20459;-67
2021/08/22 02:01:40;;;;;;;28.63;25.97;;;17.70;99.90;;;;;;5055449;28;20942;-67
2021/08/22 02:04:13;;;;;;;27.90;25.40;;;17.80;99.90;;;;;;5054775;28;20451;-68
2021/08/22 02:06:47;;;;;;;27.97;25.27;;;17.80;99.90;;;;;;5056694;28;20986;-69
2021/08/22 02:09:18;;;;;;;29.47;26.37;;;17.80;99.90;;;;;;5057915;28;20460;-69
2021/08/22 02:11:50;;;;;;;27.10;24.43;;;17.80;99.90;;;;;;5054381;28;20486;-68
2021/08/22 02:14:21;;;;;;;28.70;25.40;;;17.80;99.90;;;;;;5056423;28;20462;-67
2021/08/22 02:16:50;;;;;;;28.20;25.30;;;17.80;99.90;;;;;;5060873;28;21064;-68
2021/08/22 02:19:18;;;;;;;28.80;25.93;;;17.90;99.90;;;;;;5056662;28;20462;-68
2021/08/22 02:21:46;;;;;;;28.30;25.70;;;17.90;99.90;;;;;;5055277;28;20863;-67
2021/08/22 02:24:16;;;;;;;29.50;26.50;;;17.90;99.90;;;;;;5053794;28;20455;-71
2021/08/22 02:26:43;;;;;;;29.23;26.20;;;17.80;99.90;;;;;;5056270;28;20451;-68
2021/08/22 02:29:10;;;;;;;32.20;29.10;;;17.90;99.90;;;;;;5055196;28;20455;-68
2021/08/22 02:31:37;;;;;;;31.43;28.10;;;17.90;99.90;;;;;;5054165;28;20460;-68
2021/08/22 02:34:05;;;;;;;31.27;28.00;;;17.90;99.90;;;;;;5060672;28;20972;-69
2021/08/22 02:36:33;;;;;;;31.13;28.00;;;17.90;99.90;;;;;;5053712;28;20456;-68
2021/08/22 02:39:00;;;;;;;31.47;28.57;;;17.90;99.90;;;;;;5052424;28;20518;-68
2021/08/22 02:41:29;;;;;;;32.10;28.87;;;18.00;99.90;;;;;;5053900;28;20454;-69
2021/08/22 02:43:56;;;;;;;30.30;27.37;;;17.90;99.90;;;;;;5052962;28;21023;-68
2021/08/22 02:46:23;;;;;;;30.57;27.53;;;17.90;99.90;;;;;;5054018;28;20490;-69
2021/08/22 02:48:50;;;;;;;30.77;27.73;;;18.00;99.90;;;;;;5054847;28;20451;-68
2021/08/22 02:51:17;;;;;;;30.13;27.33;;;17.90;99.90;;;;;;5052478;28;20459;-70
2021/08/22 02:53:45;;;;;;;31.93;28.47;;;17.90;99.90;;;;;;5052746;28;20985;-68
2021/08/22 02:56:13;;;;;;;31.47;28.47;;;17.90;99.90;;;;;;5055841;28;20537;-68
2021/08/22 02:58:42;;;;;;;31.57;28.23;;;18.00;99.90;;;;;;5054236;28;20512;-68
2021/08/22 03:01:09;;;;;;;30.93;27.97;;;17.90;99.90;;;;;;5051360;28;20570;-69
2021/08/22 03:03:36;;;;;;;30.80;27.80;;;17.80;99.90;;;;;;5059504;28;20459;-70
2021/08/22 03:06:03;;;;;;;31.73;28.50;;;17.90;99.90;;;;;;5057008;28;20942;-68
2021/08/22 03:08:30;;;;;;;31.97;28.83;;;17.90;99.90;;;;;;5062282;28;20542;-70
2021/08/22 03:10:58;;;;;;;33.67;30.17;;;17.90;99.90;;;;;;5053555;28;20466;-69
2021/08/22 03:13:25;;;;;;;32.73;29.53;;;17.90;99.90;;;;;;5055168;28;20555;-69
2021/08/22 03:15:54;;;;;;;31.77;28.67;;;17.90;99.90;;;;;;5059197;28;20493;-69
2021/08/22 03:18:21;;;;;;;32.60;29.30;;;18.00;99.90;;;;;;5057210;28;20460;-70
2021/08/22 03:20:49;;;;;;;29.13;26.00;;;17.90;99.90;;;;;;5056181;28;20458;-68
2021/08/22 03:23:16;;;;;;;31.40;28.33;;;17.90;99.90;;;;;;5055257;28;20460;-69
2021/08/22 03:25:44;;;;;;;29.03;26.13;;;17.90;99.90;;;;;;5057758;28;20543;-69
2021/08/22 03:28:11;;;;;;;28.33;25.50;;;17.90;99.90;;;;;;5059750;28;20503;-69
2021/08/22 03:30:38;;;;;;;27.53;24.80;;;17.80;99.90;;;;;;5062306;28;21440;-68
2021/08/22 03:33:07;;;;;;;30.33;27.10;;;17.80;99.90;;;;;;5056930;28;20497;-68
2021/08/22 03:35:34;;;;;;;28.57;25.10;;;17.80;99.90;;;;;;5058682;28;20455;-69
2021/08/22 03:38:03;;;;;;;31.50;26.20;;;17.80;99.90;;;;;;5056537;28;20462;-70
2021/08/22 03:40:29;;;;;;;27.73;24.83;;;17.80;99.90;;;;;;5057913;28;20815;-69
2021/08/22 03:42:56;;;;;;;34.93;25.53;;;17.70;99.90;;;;;;5055800;28;20467;-72
2021/08/22 03:45:23;;;;;;;33.80;26.47;;;17.70;99.90;;;;;;5061151;28;20952;-68
2021/08/22 03:47:52;;;;;;;29.03;25.63;;;17.70;99.90;;;;;;5058176;28;20467;-70
2021/08/22 03:50:23;;;;;;;32.60;26.60;;;17.70;99.90;;;;;;5056988;28;20482;-71
2021/08/22 03:52:52;;;;;;;38.23;27.57;;;17.70;99.90;;;;;;5059179;28;20494;-70
2021/08/22 03:55:19;;;;;;;30.63;26.27;;;17.70;99.90;;;;;;5057919;28;20482;-69
2021/08/22 03:57:46;;;;;;;46.00;28.17;;;17.60;99.90;;;;;;5060983;28;20550;-70
2021/08/22 04:00:16;;;;;;;45.63;31.00;;;17.70;99.90;;;;;;5059715;28;20961;-68
2021/08/22 04:02:44;;;;;;;39.73;28.90;;;17.70;99.90;;;;;;5058268;28;20457;-69
2021/08/22 04:05:12;;;;;;;40.37;29.90;;;17.80;99.90;;;;;;5063655;28;21064;-72
2021/08/22 04:07:46;;;;;;;49.90;30.03;;;17.80;99.90;;;;;;5054624;28;20454;-68
2021/08/22 04:10:13;;;;;;;35.07;27.27;;;17.90;99.90;;;;;;5057305;28;20455;-68
2021/08/22 04:12:41;;;;;;;39.90;28.83;;;17.90;99.90;;;;;;5053442;28;20498;-70
2021/08/22 04:15:09;;;;;;;43.80;28.33;;;17.90;99.90;;;;;;5056529;28;20452;-68
2021/08/22 04:17:37;;;;;;;35.07;27.53;;;17.80;99.90;;;;;;5053887;28;20499;-71
2021/08/22 04:20:05;;;;;;;36.63;29.17;;;17.80;99.90;;;;;;5057329;28;20463;-70
2021/08/22 04:22:36;;;;;;;36.10;28.97;;;17.80;99.90;;;;;;5056347;28;20456;-69
2021/08/22 04:25:05;;;;;;;35.20;29.27;;;17.80;99.90;;;;;;5055455;28;20498;-70
2021/08/22 04:27:34;;;;;;;40.57;29.97;;;17.80;99.90;;;;;;5059545;28;20463;-70
2021/08/22 04:30:01;;;;;;;40.70;30.30;;;17.80;99.90;;;;;;5060228;28;20787;-68
2021/08/22 04:32:29;;;;;;;36.43;29.60;;;17.90;99.90;;;;;;5055657;28;20489;-69
2021/08/22 04:34:56;;;;;;;35.50;28.87;;;17.80;99.90;;;;;;5056401;28;20822;-69
2021/08/22 04:37:23;;;;;;;36.33;29.50;;;17.80;99.90;;;;;;5049339;28;20937;-70
2021/08/22 04:39:51;;;;;;;45.13;31.17;;;17.70;99.90;;;;;;5053782;28;20791;-69
2021/08/22 04:42:20;;;;;;;37.70;29.37;;;17.70;99.90;;;;;;5056143;28;20467;-69
2021/08/22 04:44:48;;;;;;;40.40;30.73;;;17.70;99.90;;;;;;5058179;28;20478;-69
2021/08/22 04:47:15;;;;;;;34.80;29.00;;;17.70;99.90;;;;;;5060602;28;20942;-69
2021/08/22 04:49:43;;;;;;;36.23;29.30;;;17.70;99.90;;;;;;5056860;28;20460;-71
2021/08/22 04:52:10;;;;;;;46.10;31.43;;;17.60;99.90;;;;;;5058987;28;20463;-69
2021/08/22 04:54:38;;;;;;;42.33;29.90;;;17.50;99.90;;;;;;5058341;28;20452;-69
2021/08/22 04:57:05;;;;;;;41.27;33.37;;;17.30;99.90;;;;;;5058344;28;20490;-70
2021/08/22 04:59:35;;;;;;;42.40;33.57;;;17.30;99.90;;;;;;5060941;28;20465;-70
2021/08/22 05:02:02;;;;;;;42.93;31.67;;;17.30;99.90;;;;;;5058922;28;20810;-69
2021/08/22 05:04:31;;;;;;;52.33;32.43;;;17.30;99.90;;;;;;5052278;28;21024;-69
2021/08/22 05:06:58;;;;;;;38.13;32.23;;;17.20;99.90;;;;;;5057517;28;20452;-72
2021/08/22 05:09:25;;;;;;;47.20;33.77;;;17.30;99.90;;;;;;5057287;28;20455;-71
2021/08/22 05:11:52;;;;;;;46.27;33.50;;;17.40;99.90;;;;;;5053394;28;20468;-71
2021/08/22 05:14:20;;;;;;;37.30;31.50;;;17.40;99.90;;;;;;5059381;28;20519;-69
2021/08/22 05:16:48;;;;;;;35.23;30.20;;;17.50;99.90;;;;;;5055181;28;20474;-71
2021/08/22 05:19:15;;;;;;;35.90;28.87;;;17.50;99.90;;;;;;5050538;28;20443;-71
2021/08/22 05:21:42;;;;;;;33.80;29.87;;;17.40;99.90;;;;;;5054712;28;20463;-70
2021/08/22 05:24:09;;;;;;;38.07;29.87;;;17.50;99.90;;;;;;5058909;28;20462;-71
2021/08/22 05:26:36;;;;;;;35.20;31.40;;;17.40;99.90;;;;;;5055608;28;20788;-71
2021/08/22 05:29:03;;;;;;;33.80;28.83;;;17.50;99.90;;;;;;5052064;28;20466;-70
2021/08/22 05:31:31;;;;;;;39.57;31.43;;;17.50;99.90;;;;;;5056175;28;20463;-71
2021/08/22 05:33:59;;;;;;;37.80;28.60;;;17.50;99.90;;;;;;5053774;28;20482;-69
2021/08/22 05:36:25;;;;;;;36.37;28.37;;;17.50;99.90;;;;;;5050941;28;20982;-71
2021/08/22 05:38:55;;;;;;;35.63;29.47;;;17.50;99.90;;;;;;5053152;28;20444;-69
2021/08/22 05:41:23;;;;;;;33.67;28.33;;;17.60;99.90;;;;;;5062847;28;20515;-70
2021/08/22 05:43:51;;;;;;;32.43;27.37;;;17.60;99.90;;;;;;5053245;28;20467;-72
2021/08/22 05:46:18;;;;;;;32.77;29.10;;;17.70;99.90;;;;;;5054126;28;20456;-71
2021/08/22 05:48:44;;;;;;;33.03;27.00;;;17.60;99.90;;;;;;5052131;28;20463;-69
2021/08/22 05:51:17;;;;;;;30.90;27.70;;;17.50;99.90;;;;;;5055431;28;20459;-72
2021/08/22 05:53:44;;;;;;;30.73;27.30;;;17.50;99.90;;;;;;5049956;28;20808;-70
2021/08/22 05:56:12;;;;;;;36.83;28.50;;;17.60;99.90;;;;;;5052510;28;20774;-72
2021/08/22 05:58:39;;;;;;;32.90;29.07;;;17.70;99.90;;;;;;5052475;28;21034;-69
2021/08/22 06:01:07;;;;;;;33.60;27.70;;;17.70;99.90;;;;;;5055672;28;20693;-72
2021/08/22 06:03:34;;;;;;;35.13;27.13;;;17.90;99.90;;;;;;5048151;28;20456;-70
2021/08/22 06:06:06;;;;;;;28.43;25.50;;;17.90;99.90;;;;;;5050906;28;20456;-70
2021/08/22 06:08:35;;;;;;;31.63;26.90;;;18.00;99.90;;;;;;5057286;28;20470;-68
2021/08/22 06:11:03;;;;;;;33.00;27.00;;;18.00;99.90;;;;;;5054160;28;20460;-69
2021/08/22 06:13:30;;;;;;;30.37;27.13;;;18.20;99.90;;;;;;5055475;28;20985;-69
2021/08/22 06:15:57;;;;;;;32.33;28.33;;;18.30;99.90;;;;;;5055606;28;20582;-69
2021/08/22 06:18:25;;;;;;;29.60;25.30;;;18.40;99.90;;;;;;5051211;28;20472;-69
2021/08/22 06:20:52;;;;;;;29.63;26.40;;;18.50;99.90;;;;;;5056284;28;21017;-71
2021/08/22 06:23:20;;;;;;;30.07;26.77;;;18.40;99.90;;;;;;5053772;28;20771;-69
2021/08/22 06:25:49;;;;;;;28.60;25.70;;;18.50;99.90;;;;;;5047300;28;20463;-71
2021/08/22 06:28:17;;;;;;;30.07;26.00;;;18.60;99.90;;;;;;5049761;28;20463;-69
2021/08/22 06:30:44;;;;;;;30.20;27.07;;;18.50;99.90;;;;;;5053777;28;20847;-68
2021/08/22 06:33:12;;;;;;;29.23;26.13;;;18.60;99.90;;;;;;5052314;28;20542;-68
2021/08/22 06:35:40;;;;;;;30.97;26.63;;;18.60;99.90;;;;;;5057627;28;20443;-69
2021/08/22 06:38:07;;;;;;;32.10;26.03;;;18.60;99.90;;;;;;5052163;28;20455;-69
2021/08/22 06:40:34;;;;;;;28.33;25.33;;;18.70;99.90;;;;;;5059286;28;20458;-69
2021/08/22 06:43:04;;;;;;;28.00;25.10;;;18.80;99.90;;;;;;5059835;28;20462;-69
2021/08/22 06:45:30;;;;;;;30.27;25.17;;;18.80;99.90;;;;;;5054140;28;20541;-70
2021/08/22 06:47:58;;;;;;;28.30;23.30;;;18.90;99.90;;;;;;5052039;28;20843;-68
2021/08/22 06:50:25;;;;;;;26.23;23.70;;;18.80;99.90;;;;;;5049666;28;20447;-68
2021/08/22 06:52:53;;;;;;;26.30;23.97;;;18.50;99.90;;;;;;5053686;28;20452;-70
2021/08/22 06:55:21;;;;;;;29.20;24.13;;;18.50;99.90;;;;;;5055935;28;20490;-70
2021/08/22 06:57:47;;;;;;;27.03;23.77;;;18.60;99.90;;;;;;5053295;28;20459;-69
2021/08/22 07:00:17;;;;;;;26.20;23.50;;;18.50;99.90;;;;;;5054615;28;20470;-72
2021/08/22 07:02:45;;;;;;;25.73;23.20;;;18.60;99.90;;;;;;5050534;28;20539;-68
2021/08/22 07:05:12;;;;;;;26.03;23.43;;;18.60;99.90;;;;;;5045444;28;20475;-68
2021/08/22 07:07:41;;;;;;;24.27;21.83;;;18.60;99.90;;;;;;5046829;28;20497;-69
2021/08/22 07:10:09;;;;;;;26.27;23.87;;;18.70;99.90;;;;;;5057242;28;20462;-71
2021/08/22 07:12:37;;;;;;;26.33;23.60;;;18.90;99.90;;;;;;5060289;28;20459;-71
2021/08/22 07:15:05;;;;;;;26.37;23.57;;;19.20;99.90;;;;;;5060007;28;20483;-71
2021/08/22 07:17:33;;;;;;;25.27;22.97;;;19.20;99.90;;;;;;5053302;28;21304;-71
2021/08/22 07:20:00;;;;;;;25.47;23.20;;;19.60;99.90;;;;;;5054364;28;21017;-68
2021/08/22 07:22:27;;;;;;;24.63;22.53;;;20.00;99.90;;;;;;5057558;28;20474;-71
2021/08/22 07:24:54;;;;;;;26.23;22.47;;;20.20;99.90;;;;;;5047148;28;20458;-71
2021/08/22 07:27:22;;;;;;;24.90;22.67;;;19.90;99.90;;;;;;5054431;28;20861;-69
2021/08/22 07:29:49;;;;;;;25.63;23.33;;;20.10;99.90;;;;;;5054087;28;20460;-69
2021/08/22 07:32:18;;;;;;;24.70;22.27;;;20.40;99.90;;;;;;5060761;28;21225;-69
2021/08/22 07:34:47;;;;;;;24.27;21.93;;;20.70;99.90;;;;;;5058973;28;21023;-68
2021/08/22 07:37:13;;;;;;;23.10;20.83;;;20.80;99.90;;;;;;5047134;28;20456;-71
2021/08/22 07:39:41;;;;;;;23.83;21.87;;;21.00;99.90;;;;;;5055213;28;20490;-69
2021/08/22 07:42:08;;;;;;;23.43;21.00;;;21.30;99.90;;;;;;5052193;28;20456;-69
2021/08/22 07:44:35;;;;;;;24.10;22.20;;;21.70;99.90;;;;;;5052229;28;20451;-71
2021/08/22 07:47:02;;;;;;;24.60;22.30;;;21.50;99.90;;;;;;5049643;28;20447;-69
2021/08/22 07:49:29;;;;;;;23.90;22.03;;;21.40;99.90;;;;;;5049075;28;20813;-69
2021/08/22 07:51:59;;;;;;;25.17;23.17;;;21.20;99.90;;;;;;5059144;28;20950;-69
2021/08/22 07:54:27;;;;;;;25.00;22.77;;;20.80;99.90;;;;;;5055973;28;21252;-69
2021/08/22 07:56:54;;;;;;;24.10;22.00;;;20.80;99.90;;;;;;5059622;28;20475;-69
2021/08/22 07:59:21;;;;;;;24.67;22.77;;;21.20;99.90;;;;;;5056563;28;20456;-69
2021/08/22 08:01:49;;;;;;;22.93;21.37;;;21.30;99.90;;;;;;5059627;28;20534;-71
2021/08/22 08:04:16;;;;;;;23.27;21.53;;;21.20;99.90;;;;;;5055717;28;20467;-69
2021/08/22 08:06:43;;;;;;;22.90;21.10;;;21.20;99.90;;;;;;5054983;28;20464;-69
2021/08/22 08:09:13;;;;;;;22.77;20.90;;;21.30;99.90;;;;;;5057740;28;20469;-72
2021/08/22 08:11:40;;;;;;;22.20;20.40;;;21.30;99.90;;;;;;5053526;28;20550;-72
2021/08/22 08:14:07;;;;;;;22.30;20.60;;;21.00;99.90;;;;;;5056885;28;20501;-71
2021/08/22 08:16:34;;;;;;;22.53;20.67;;;21.10;99.90;;;;;;5055663;28;20602;-72
2021/08/22 08:19:02;;;;;;;21.07;19.47;;;21.10;99.90;;;;;;5057608;28;20456;-69
2021/08/22 08:21:30;;;;;;;20.17;18.67;;;21.20;99.90;;;;;;5057295;28;20456;-69
2021/08/22 08:23:57;;;;;;;19.30;18.03;;;21.40;99.90;;;;;;5056424;28;20856;-69
2021/08/22 08:26:25;;;;;;;21.60;19.70;;;21.20;99.90;;;;;;5059460;28;20468;-69
2021/08/22 08:28:53;;;;;;;19.97;18.40;;;21.30;99.90;;;;;;5062390;28;20859;-69
2021/08/22 08:31:20;;;;;;;19.50;17.90;;;21.50;99.90;;;;;;5067270;28;20781;-69
2021/08/22 08:33:47;;;;;;;17.60;16.53;;;21.80;99.90;;;;;;5060302;28;20489;-69
2021/08/22 08:36:14;;;;;;;18.30;17.00;;;21.80;99.90;;;;;;5059838;28;20456;-69
2021/08/22 08:38:42;;;;;;;16.90;15.83;;;21.60;99.90;;;;;;5053277;28;20467;-72
2021/08/22 08:41:09;;;;;;;17.33;16.27;;;21.80;99.90;;;;;;5056394;28;20463;-72
2021/08/22 08:43:38;;;;;;;17.47;16.37;;;21.90;99.90;;;;;;5054798;28;20455;-69
2021/08/22 08:46:07;;;;;;;16.83;15.70;;;21.80;99.90;;;;;;5052969;28;20467;-69
2021/08/22 08:48:39;;;;;;;17.40;16.30;;;21.60;99.90;;;;;;5058170;28;20477;-70
2021/08/22 08:51:14;;;;;;;17.37;16.07;;;21.50;99.90;;;;;;5056514;28;20488;-71
2021/08/22 08:53:46;;;;;;;17.70;16.43;;;21.50;99.90;;;;;;5053811;28;20635;-68
2021/08/22 08:56:12;;;;;;;19.00;17.47;;;21.10;99.90;;;;;;5062660;28;20483;-72
2021/08/22 08:58:42;;;;;;;19.27;17.80;;;20.80;99.90;;;;;;5057567;28;20504;-70
2021/08/22 09:01:09;;;;;;;19.90;18.50;;;20.90;99.90;;;;;;5055207;28;20455;-72
2021/08/22 09:03:37;;;;;;;18.70;17.50;;;20.90;99.90;;;;;;5053605;28;20448;-71
2021/08/22 09:06:15;;;;;;;18.93;17.73;;;21.10;99.90;;;;;;5060147;28;20464;-69
2021/08/22 09:09:29;;;;;;;18.20;16.80;;;21.60;99.90;;;;;;5059989;28;20463;-69
2021/08/22 09:12:33;;;;;;;18.57;16.07;;;22.50;99.90;;;;;;5061209;28;20474;-70
2021/08/22 09:15:39;;;;;;;17.73;16.47;;;22.80;99.90;;;;;;5058769;28;20494;-68
2021/08/22 09:18:48;;;;;;;17.43;16.43;;;22.90;99.90;;;;;;5058083;28;20548;-71
2021/08/22 09:21:52;;;;;;;18.60;17.30;;;22.40;99.90;;;;;;5053149;28;20458;-69
2021/08/22 09:24:56;;;;;;;17.63;16.50;;;22.20;99.90;;;;;;5053596;28;20467;-69
2021/08/22 09:28:03;;;;;;;17.33;16.17;;;22.80;99.90;;;;;;5054475;28;20460;-68
2021/08/22 09:31:07;;;;;;;17.10;16.00;;;22.50;99.90;;;;;;5044435;28;20462;-68
2021/08/22 09:34:26;;;;;;;16.93;15.93;;;21.90;99.90;;;;;;5055383;28;20444;-68
2021/08/22 09:37:33;;;;;;;18.17;16.80;;;21.70;99.90;;;;;;5053587;28;20859;-69
2021/08/22 09:40:37;;;;;;;17.53;16.37;;;21.60;99.90;;;;;;5058276;28;20466;-69
2021/08/22 09:43:46;;;;;;;17.20;16.03;;;21.50;99.90;;;;;;5054235;28;20461;-69
2021/08/22 09:47:04;;;;;;;15.93;14.90;;;22.60;99.90;;;;;;5053546;28;20968;-70
2021/08/22 09:50:14;;;;;;;17.20;15.80;;;23.60;99.90;;;;;;5048909;28;20456;-70
2021/08/22 09:53:20;;;;;;;16.73;15.40;;;24.00;99.90;;;;;;5059059;28;20451;-69
2021/08/22 09:56:33;;;;;;;16.80;15.80;;;23.80;99.90;;;;;;5060492;28;20495;-70
2021/08/22 09:59:38;;;;;;;16.80;15.80;;;24.20;99.90;;;;;;5053301;28;20461;-72
2021/08/22 10:02:23;;;;;;;16.03;14.93;;;23.30;99.90;;;;;;5058881;28;20463;-70
2021/08/22 10:05:25;;;;;;;17.07;15.77;;;23.40;99.90;;;;;;5048396;28;20483;-70
2021/08/22 10:08:13;;;;;;;16.70;15.60;;;24.20;99.90;;;;;;5049738;28;20450;-71
2021/08/22 10:10:44;;;;;;;15.77;14.70;;;24.10;99.90;;;;;;5055961;28;20914;-70
2021/08/22 10:13:11;;;;;;;15.60;14.43;;;23.60;99.90;;;;;;5052982;28;20889;-70
2021/08/22 10:15:44;;;;;;;15.37;14.37;;;23.70;99.90;;;;;;5054619;28;20483;-71
2021/08/22 10:18:21;;;;;;;15.80;14.60;;;24.20;99.90;;;;;;5053954;28;20452;-72
2021/08/22 10:20:48;;;;;;;17.20;15.93;;;24.50;99.90;;;;;;5052533;28;20454;-70
2021/08/22 10:23:55;;;;;;;16.30;15.30;;;25.00;99.90;;;;;;5051308;28;20479;-71
2021/08/22 10:26:50;;;;;;;16.90;15.70;;;25.10;99.90;;;;;;5053981;28;20499;-71
2021/08/22 10:29:20;;;;;;;17.10;15.50;;;25.90;99.90;;;;;;5060017;28;20452;-71
2021/08/22 10:32:07;;;;;;;16.33;15.33;;;25.80;99.90;;;;;;5061206;28;20550;-71
2021/08/22 10:34:37;;;;;;;15.90;14.90;;;25.80;99.90;;;;;;5052919;28;21025;-71
2021/08/22 10:37:34;;;;;;;16.30;15.20;;;25.40;99.90;;;;;;5047925;28;20462;-74
2021/08/22 10:40:34;;;;;;;17.07;16.07;;;25.30;99.90;;;;;;5058127;28;20455;-75
2021/08/22 10:43:39;;;;;;;15.83;14.93;;;25.00;99.90;;;;;;5055656;28;20805;-74
2021/08/22 10:46:07;;;;;;;17.60;16.40;;;25.10;99.90;;;;;;5061021;28;20804;-70
2021/08/22 10:48:47;;;;;;;17.57;16.33;;;25.40;99.90;;;;;;5052474;28;20816;-70
2021/08/22 10:51:16;;;;;;;16.60;15.37;;;24.70;99.90;;;;;;5051484;28;20947;-69
2021/08/22 10:53:44;;;;;;;17.33;16.10;;;24.50;99.90;;;;;;5055495;28;20509;-72
2021/08/22 10:56:35;;;;;;;16.27;15.00;;;24.20;99.90;;;;;;5052410;28;20519;-69
2021/08/22 10:59:04;;;;;;;16.33;15.30;;;24.10;99.90;;;;;;5051751;28;21035;-69
2021/08/22 11:01:33;;;;;;;16.37;15.23;;;24.30;99.90;;;;;;5057654;28;20452;-69
2021/08/22 11:04:05;;;;;;;17.83;16.20;;;24.30;99.90;;;;;;5055689;28;20464;-69
2021/08/22 11:06:34;;;;;;;17.37;15.80;;;24.50;99.90;;;;;;5049779;28;20459;-69
2021/08/22 11:09:01;;;;;;;16.90;15.60;;;24.60;99.90;;;;;;5053212;28;20463;-74
2021/08/22 11:11:28;;;;;;;17.20;16.10;;;24.30;99.90;;;;;;5057002;28;20489;-73
2021/08/22 11:13:56;;;;;;;17.70;16.50;;;23.70;99.90;;;;;;5049601;28;20455;-69
2021/08/22 11:16:39;;;;;;;17.60;16.20;;;23.60;99.90;;;;;;5063418;28;20997;-69
2021/08/22 11:19:06;;;;;;;16.43;15.40;;;23.80;99.90;;;;;;5053433;28;20473;-72
2021/08/22 11:21:36;;;;;;;16.53;15.37;;;24.50;99.90;;;;;;5055407;28;20977;-69
2021/08/22 11:24:04;;;;;;;16.43;15.43;;;24.50;99.90;;;;;;5055515;28;20465;-68
2021/08/22 11:26:32;;;;;;;16.50;15.50;;;24.40;99.90;;;;;;5056935;28;20459;-69
2021/08/22 11:29:01;;;;;;;17.60;16.50;;;24.00;99.90;;;;;;5064003;28;20527;-69
2021/08/22 11:31:33;;;;;;;17.63;16.43;;;23.40;99.90;;;;;;5064065;28;21040;-73
2021/08/22 11:34:11;;;;;;;17.70;16.30;;;23.70;99.90;;;;;;5063559;28;20453;-70
2021/08/22 11:36:39;;;;;;;16.67;15.30;;;24.10;99.90;;;;;;5054334;28;20532;-71
2021/08/22 11:39:16;;;;;;;16.40;15.30;;;24.10;99.90;;;;;;5056141;28;20456;-69
2021/08/22 11:41:50;;;;;;;16.67;15.20;;;24.60;99.90;;;;;;5056103;28;20953;-71
2021/08/22 11:44:24;;;;;;;15.97;14.87;;;24.90;99.90;;;;;;5060377;28;20461;-73
2021/08/22 11:46:52;;;;;;;15.40;14.50;;;25.70;99.90;;;;;;5060142;28;20822;-69
2021/08/22 11:49:21;;;;;;;15.33;14.23;;;25.30;99.90;;;;;;5060041;28;20505;-69
2021/08/22 11:51:55;;;;;;;15.70;14.50;;;25.50;99.90;;;;;;5058988;28;20452;-69
2021/08/22 11:54:24;;;;;;;15.00;14.10;;;25.40;99.90;;;;;;5059041;28;20454;-69
2021/08/22 11:56:50;;;;;;;15.07;13.87;;;25.10;99.90;;;;;;5054266;28;20490;-70
2021/08/22 11:59:25;;;;;;;15.23;14.17;;;25.40;99.90;;;;;;5064882;28;20790;-72
2021/08/22 12:02:12;;;;;;;16.53;14.90;;;26.20;99.90;;;;;;5061081;28;20451;-70
2021/08/22 12:04:39;;;;;;;15.07;14.10;;;25.50;99.90;;;;;;5057020;28;20447;-70
2021/08/22 12:07:07;;;;;;;14.73;13.83;;;25.60;99.90;;;;;;5049950;28;20468;-68
2021/08/22 12:09:36;;;;;;;14.67;13.77;;;25.20;99.90;;;;;;5059675;28;20468;-71
2021/08/22 12:12:03;;;;;;;15.63;14.57;;;24.70;99.90;;;;;;5057221;28;20459;-68
2021/08/22 12:14:32;;;;;;;16.30;14.93;;;24.40;99.90;;;;;;5056480;28;20846;-68
2021/08/22 12:17:01;;;;;;;13.97;13.17;;;24.40;99.90;;;;;;5059938;28;20848;-69
2021/08/22 12:19:30;;;;;;;14.80;13.60;;;24.20;99.90;;;;;;5057795;28;20554;-71
2021/08/22 12:22:08;;;;;;;14.70;13.90;;;23.30;99.90;;;;;;5050327;28;20517;-68
2021/08/22 12:24:44;;;;;;;14.03;13.30;;;23.30;99.90;;;;;;5056215;28;20822;-69
2021/08/22 12:27:10;;;;;;;13.77;12.77;;;23.10;99.90;;;;;;5054321;28;20447;-69
2021/08/22 12:29:39;;;;;;;13.70;12.60;;;23.10;99.90;;;;;;5053527;28;20919;-69
2021/08/22 12:32:11;;;;;;;13.10;12.50;;;23.10;99.90;;;;;;5056485;28;20950;-69
2021/08/22 12:34:38;;;;;;;12.80;12.20;;;23.40;99.90;;;;;;5059612;28;20579;-69
2021/08/22 12:37:10;;;;;;;11.97;11.47;;;23.60;99.90;;;;;;5058341;28;20468;-68
2021/08/22 12:39:39;;;;;;;12.10;11.60;;;23.50;99.90;;;;;;5057973;28;20462;-68
2021/08/22 12:42:06;;;;;;;12.17;11.57;;;23.90;99.90;;;;;;5055511;28;20460;-69
2021/08/22 12:44:33;;;;;;;12.70;12.10;;;24.20;99.90;;;;;;5056727;28;20535;-69
2021/08/22 12:47:02;;;;;;;13.10;12.30;;;24.60;99.90;;;;;;5060150;28;20878;-69
2021/08/22 12:49:30;;;;;;;13.20;12.60;;;24.80;99.90;;;;;;5060067;28;20513;-70